PWSweather.com
Personal Weather Stations
Station Observations
WATERF01
WaterfordIE

WaterfordIE

Lat: 52.2412507, Lon: -7.1414691

Elevation: 65

Station Type: Davis Vantage Vue

Latest ConditionsUpdated 9:20:00 PM GMT Friday, Jul 31, 2015
Currently Today's Max Today's Min Today's Average
Temperature 56.3°F13.5°C 63.4°F17.4°C 52.6°F11.4°C 57.1°F13.9°C
Dew Point 53.1°F11.7°C 54.3°F12.4°C 49.1°F9.5°C 51.9°F11.1°C
Winds 5.8 mph W9.3 kmh W 12.7 mph SW20.4 kmh SW - 5.5 mph 8.9 kmh
Wind Gusts 8.1 mph13.0 kmh 21.9 mph35.2 kmh - -
Humidity 89% 91% 71% 83%
Pressure 29.92 in1013.2 mb 30.13 in1020.3 mb 29.92 in1013.2 mb -
Hour Temp Dew Point Humidity Winds Wind Gusts Pressure Precip Precip Rate Daily Precip Total
09:20 PM 56.3°F13.5°C 53.1°F11.7°C 89% 5.8 mph W9.3 kmh W 8.1 mph13.0 kmh 29.92 in1013.2 mb - 0.00 in0.0 mm 0.00 in0.0 mm
09:10 PM 56.4°F13.6°C 52.9°F11.6°C 88% 6.9 mph SW11.1 kmh SW 9.2 mph14.8 kmh 29.92 in1013.2 mb - 0.00 in0.0 mm 0.00 in0.0 mm
09:00 PM 56.4°F13.6°C 52.9°F11.6°C 88% 6.9 mph SW11.1 kmh SW 11.5 mph18.5 kmh 29.92 in1013.2 mb - 0.00 in0.0 mm 0.00 in0.0 mm
08:50 PM 56.5°F13.6°C 53.0°F11.7°C 88% 5.8 mph WNW9.3 kmh WNW 11.5 mph18.5 kmh 29.92 in1013.2 mb - 0.00 in0.0 mm 0.00 in0.0 mm
08:40 PM 56.6°F13.7°C 52.8°F11.6°C 87% 6.9 mph SW11.1 kmh SW 11.5 mph18.5 kmh 29.92 in1013.2 mb - 0.00 in0.0 mm 0.00 in0.0 mm
08:20 PM 56.9°F13.8°C 53.1°F11.7°C 87% 9.2 mph W14.8 kmh W 13.8 mph22.2 kmh 29.92 in1013.2 mb - 0.00 in0.0 mm 0.00 in0.0 mm
08:10 PM 57.1°F13.9°C 52.9°F11.6°C 86% 8.1 mph SW13.0 kmh SW 12.7 mph20.4 kmh 29.92 in1013.2 mb - 0.00 in0.0 mm 0.00 in0.0 mm
07:50 PM 57.2°F14.0°C 52.7°F11.5°C 85% 5.8 mph SW9.3 kmh SW 8.1 mph13.0 kmh 29.92 in1013.2 mb - 0.00 in0.0 mm 0.00 in0.0 mm
07:40 PM 57.4°F14.1°C 52.9°F11.6°C 85% 6.9 mph NW11.1 kmh NW 12.7 mph20.4 kmh 29.92 in1013.2 mb - 0.00 in0.0 mm 0.00 in0.0 mm
07:20 PM 57.6°F14.2°C 52.8°F11.6°C 84% 9.2 mph SW14.8 kmh SW 15.0 mph24.1 kmh 29.92 in1013.2 mb - 0.00 in0.0 mm 0.00 in0.0 mm
07:10 PM 57.7°F14.3°C 52.9°F11.6°C 84% 9.2 mph W14.8 kmh W 16.1 mph25.9 kmh 29.92 in1013.2 mb - 0.00 in0.0 mm 0.00 in0.0 mm
06:50 PM 57.9°F14.4°C 52.8°F11.6°C 83% 4.6 mph SW7.4 kmh SW 8.1 mph13.0 kmh 29.93 in1013.5 mb - 0.00 in0.0 mm 0.00 in0.0 mm
06:40 PM 58.2°F14.6°C 52.7°F11.5°C 82% 8.1 mph SW13.0 kmh SW 12.7 mph20.4 kmh 29.93 in1013.5 mb - 0.00 in0.0 mm 0.00 in0.0 mm
06:20 PM 58.5°F14.7°C 52.4°F11.3°C 80% 9.2 mph SW14.8 kmh SW 15.0 mph24.1 kmh 29.93 in1013.5 mb - 0.00 in0.0 mm 0.00 in0.0 mm
06:10 PM 58.3°F14.6°C 52.8°F11.6°C 82% 6.9 mph SW11.1 kmh SW 13.8 mph22.2 kmh 29.93 in1013.5 mb - 0.00 in0.0 mm 0.00 in0.0 mm
05:50 PM 58.4°F14.7°C 52.6°F11.4°C 81% 9.2 mph WNW14.8 kmh WNW 16.1 mph25.9 kmh 29.94 in1013.9 mb - 0.00 in0.0 mm 0.00 in0.0 mm
05:40 PM 58.6°F14.8°C 52.8°F11.6°C 81% 10.4 mph SW16.7 kmh SW 16.1 mph25.9 kmh 29.93 in1013.5 mb - 0.00 in0.0 mm 0.00 in0.0 mm
05:20 PM 58.9°F14.9°C 52.7°F11.5°C 80% 8.1 mph SW13.0 kmh SW 12.7 mph20.4 kmh 29.94 in1013.9 mb - 0.00 in0.0 mm 0.00 in0.0 mm
05:10 PM 58.6°F14.8°C 52.1°F11.2°C 79% 12.7 mph SSW20.4 kmh SSW 19.6 mph31.5 kmh 29.95 in1014.2 mb - 0.00 in0.0 mm 0.00 in0.0 mm
04:50 PM 59.0°F15.0°C 52.5°F11.4°C 79% 10.4 mph SW16.7 kmh SW 18.4 mph29.6 kmh 29.95 in1014.2 mb - 0.00 in0.0 mm 0.00 in0.0 mm
04:40 PM 59.2°F15.1°C 52.7°F11.5°C 79% 8.1 mph SW13.0 kmh SW 12.7 mph20.4 kmh 29.95 in1014.2 mb - 0.00 in0.0 mm 0.00 in0.0 mm
04:20 PM 60.1°F15.6°C 52.9°F11.6°C 77% 11.5 mph WSW18.5 kmh WSW 18.4 mph29.6 kmh 29.95 in1014.2 mb - 0.00 in0.0 mm 0.00 in0.0 mm
04:10 PM 60.3°F15.7°C 53.1°F11.7°C 77% 9.2 mph SW14.8 kmh SW 16.1 mph25.9 kmh 29.95 in1014.2 mb - 0.00 in0.0 mm 0.00 in0.0 mm
03:50 PM 60.9°F16.1°C 52.9°F11.6°C 75% 12.7 mph SW20.4 kmh SW 21.9 mph35.2 kmh 29.95 in1014.2 mb - 0.00 in0.0 mm 0.00 in0.0 mm
03:40 PM 61.4°F16.3°C 53.0°F11.7°C 74% 11.5 mph SW18.5 kmh SW 19.6 mph31.5 kmh 29.95 in1014.2 mb - 0.00 in0.0 mm 0.00 in0.0 mm
03:20 PM 60.9°F16.1°C 53.6°F12.0°C 77% 9.2 mph WSW14.8 kmh WSW 16.1 mph25.9 kmh 29.96 in1014.6 mb - 0.00 in0.0 mm 0.00 in0.0 mm
03:10 PM 60.5°F15.8°C 52.9°F11.6°C 76% 8.1 mph SW13.0 kmh SW 13.8 mph22.2 kmh 29.97 in1014.9 mb - 0.00 in0.0 mm 0.00 in0.0 mm
02:50 PM 61.2°F16.2°C 54.3°F12.4°C 78% 10.4 mph SW16.7 kmh SW 18.4 mph29.6 kmh 29.98 in1015.2 mb - 0.00 in0.0 mm 0.00 in0.0 mm
02:40 PM 61.3°F16.3°C 53.7°F12.1°C 76% 8.1 mph SW13.0 kmh SW 18.4 mph29.6 kmh 29.98 in1015.2 mb - 0.00 in0.0 mm 0.00 in0.0 mm
02:20 PM 62.0°F16.7°C 54.0°F12.2°C 75% 10.4 mph WSW16.7 kmh WSW 19.6 mph31.5 kmh 29.98 in1015.2 mb - 0.00 in0.0 mm 0.00 in0.0 mm
02:10 PM 62.5°F16.9°C 53.7°F12.1°C 73% 12.7 mph SW20.4 kmh SW 16.1 mph25.9 kmh 29.98 in1015.2 mb - 0.00 in0.0 mm 0.00 in0.0 mm
01:50 PM 63.4°F17.4°C 53.8°F12.1°C 71% 11.5 mph SW18.5 kmh SW 19.6 mph31.5 kmh 29.99 in1015.6 mb - 0.00 in0.0 mm 0.00 in0.0 mm
01:40 PM 62.2°F16.8°C 53.4°F11.9°C 73% 11.5 mph SW18.5 kmh SW 18.4 mph29.6 kmh 30.00 in1015.9 mb - 0.00 in0.0 mm 0.00 in0.0 mm
01:20 PM 60.1°F15.6°C 51.5°F10.8°C 73% 8.1 mph SW13.0 kmh SW 12.7 mph20.4 kmh 30.00 in1015.9 mb - 0.00 in0.0 mm 0.00 in0.0 mm
01:10 PM 60.4°F15.8°C 51.3°F10.7°C 72% 8.1 mph SSW13.0 kmh SSW 15.0 mph24.1 kmh 30.01 in1016.3 mb - 0.00 in0.0 mm 0.00 in0.0 mm
12:50 PM 59.5°F15.3°C 51.6°F10.9°C 75% 8.1 mph WSW13.0 kmh WSW 15.0 mph24.1 kmh 30.01 in1016.3 mb - 0.00 in0.0 mm 0.00 in0.0 mm
12:40 PM 59.6°F15.3°C 52.0°F11.1°C 76% 8.1 mph SW13.0 kmh SW 12.7 mph20.4 kmh 30.02 in1016.6 mb - 0.00 in0.0 mm 0.00 in0.0 mm
12:20 PM 59.6°F15.3°C 52.4°F11.3°C 77% 6.9 mph SW11.1 kmh SW 13.8 mph22.2 kmh 30.02 in1016.6 mb - 0.00 in0.0 mm 0.00 in0.0 mm
12:10 PM 59.1°F15.1°C 51.9°F11.1°C 77% 8.1 mph SW13.0 kmh SW 13.8 mph22.2 kmh 30.02 in1016.6 mb - 0.00 in0.0 mm 0.00 in0.0 mm
11:50 AM 58.6°F14.8°C 52.5°F11.4°C 80% 4.6 mph SW7.4 kmh SW 8.1 mph13.0 kmh 30.02 in1016.6 mb - 0.00 in0.0 mm 0.00 in0.0 mm
11:40 AM 59.0°F15.0°C 52.8°F11.6°C 80% 10.4 mph SW16.7 kmh SW 18.4 mph29.6 kmh 30.02 in1016.6 mb - 0.00 in0.0 mm 0.00 in0.0 mm
11:20 AM 60.0°F15.6°C 52.8°F11.6°C 77% 11.5 mph SW18.5 kmh SW 19.6 mph31.5 kmh 30.02 in1016.6 mb - 0.00 in0.0 mm 0.00 in0.0 mm
11:10 AM 60.2°F15.7°C 52.6°F11.4°C 76% 8.1 mph SW13.0 kmh SW 15.0 mph24.1 kmh 30.02 in1016.6 mb - 0.00 in0.0 mm 0.00 in0.0 mm
10:50 AM 59.7°F15.4°C 52.5°F11.4°C 77% 10.4 mph SW16.7 kmh SW 16.1 mph25.9 kmh 30.02 in1016.6 mb - 0.00 in0.0 mm 0.00 in0.0 mm
10:40 AM 60.1°F15.6°C 52.9°F11.6°C 77% 10.4 mph SW16.7 kmh SW 16.1 mph25.9 kmh 30.02 in1016.6 mb - 0.00 in0.0 mm 0.00 in0.0 mm
10:20 AM 59.8°F15.4°C 52.9°F11.6°C 78% 10.4 mph NW16.7 kmh NW 18.4 mph29.6 kmh 30.03 in1016.9 mb - 0.00 in0.0 mm 0.00 in0.0 mm
10:10 AM 59.5°F15.3°C 52.6°F11.4°C 78% 8.1 mph WSW13.0 kmh WSW 12.7 mph20.4 kmh 30.03 in1016.9 mb - 0.00 in0.0 mm 0.00 in0.0 mm
09:50 AM 59.6°F15.3°C 52.8°F11.6°C 78% 8.1 mph SW13.0 kmh SW 13.8 mph22.2 kmh 30.04 in1017.3 mb - 0.00 in0.0 mm 0.00 in0.0 mm
09:40 AM 59.3°F15.2°C 52.8°F11.6°C 79% 8.1 mph NNW13.0 kmh NNW 18.4 mph29.6 kmh 30.04 in1017.3 mb - 0.00 in0.0 mm 0.00 in0.0 mm
09:20 AM 59.0°F15.0°C 52.8°F11.6°C 80% 6.9 mph SW11.1 kmh SW 8.1 mph13.0 kmh 30.04 in1017.3 mb - 0.00 in0.0 mm 0.00 in0.0 mm
09:10 AM 58.7°F14.8°C 52.5°F11.4°C 80% 5.8 mph SW9.3 kmh SW 11.5 mph18.5 kmh 30.04 in1017.3 mb - 0.00 in0.0 mm 0.00 in0.0 mm
08:50 AM 59.6°F15.3°C 53.1°F11.7°C 79% 5.8 mph WSW9.3 kmh WSW 11.5 mph18.5 kmh 30.04 in1017.3 mb - 0.00 in0.0 mm 0.00 in0.0 mm
08:40 AM 59.3°F15.2°C 53.1°F11.7°C 80% 8.1 mph SW13.0 kmh SW 12.7 mph20.4 kmh 30.04 in1017.3 mb - 0.00 in0.0 mm 0.00 in0.0 mm
08:20 AM 58.6°F14.8°C 52.8°F11.6°C 81% 6.9 mph SW11.1 kmh SW 12.7 mph20.4 kmh 30.05 in1017.6 mb - 0.00 in0.0 mm 0.00 in0.0 mm
08:10 AM 58.8°F14.9°C 53.0°F11.7°C 81% 6.9 mph SW11.1 kmh SW 13.8 mph22.2 kmh 30.05 in1017.6 mb - 0.00 in0.0 mm 0.00 in0.0 mm
07:50 AM 58.6°F14.8°C 53.8°F12.1°C 84% 5.8 mph SW9.3 kmh SW 11.5 mph18.5 kmh 30.05 in1017.6 mb - 0.00 in0.0 mm 0.00 in0.0 mm
07:40 AM 57.8°F14.3°C 53.3°F11.8°C 85% 5.8 mph SW9.3 kmh SW 9.2 mph14.8 kmh 30.05 in1017.6 mb - 0.00 in0.0 mm 0.00 in0.0 mm
07:20 AM 56.4°F13.6°C 52.6°F11.4°C 87% 1.2 mph SW1.9 kmh SW 5.8 mph9.3 kmh 30.06 in1017.9 mb - 0.00 in0.0 mm 0.00 in0.0 mm
07:10 AM 55.9°F13.3°C 52.1°F11.2°C 87% 2.3 mph SW3.7 kmh SW 5.8 mph9.3 kmh 30.06 in1017.9 mb - 0.00 in0.0 mm 0.00 in0.0 mm
06:50 AM 55.1°F12.8°C 51.3°F10.7°C 87% 3.5 mph SW5.6 kmh SW 5.8 mph9.3 kmh 30.06 in1017.9 mb - 0.00 in0.0 mm 0.00 in0.0 mm
06:40 AM 54.9°F12.7°C 51.1°F10.6°C 87% 3.5 mph SW5.6 kmh SW 9.2 mph14.8 kmh 30.06 in1017.9 mb - 0.00 in0.0 mm 0.00 in0.0 mm
06:20 AM 54.8°F12.7°C 51.0°F10.6°C 87% 3.5 mph WSW5.6 kmh WSW 6.9 mph11.1 kmh 30.06 in1017.9 mb - 0.00 in0.0 mm 0.00 in0.0 mm
06:10 AM 54.5°F12.5°C 50.4°F10.2°C 86% 3.5 mph SW5.6 kmh SW 8.1 mph13.0 kmh 30.06 in1017.9 mb - 0.00 in0.0 mm 0.00 in0.0 mm
05:50 AM 54.2°F12.3°C 50.1°F10.1°C 86% Calm Calm 2.3 mph3.7 kmh 30.07 in1018.3 mb - 0.00 in0.0 mm 0.00 in0.0 mm
05:40 AM 53.7°F12.1°C 49.9°F9.9°C 87% Calm Calm 1.2 mph1.9 kmh 30.07 in1018.3 mb - 0.00 in0.0 mm 0.00 in0.0 mm
05:20 AM 52.9°F11.6°C 49.4°F9.7°C 88% Calm Calm 2.3 mph3.7 kmh 30.07 in1018.3 mb - 0.00 in0.0 mm 0.00 in0.0 mm
05:10 AM 52.7°F11.5°C 49.2°F9.6°C 88% 2.3 mph SW3.7 kmh SW 5.8 mph9.3 kmh 30.07 in1018.3 mb - 0.00 in0.0 mm 0.00 in0.0 mm
04:50 AM 52.6°F11.4°C 49.1°F9.5°C 88% 2.3 mph WSW3.7 kmh WSW 5.8 mph9.3 kmh 30.07 in1018.3 mb - 0.00 in0.0 mm 0.00 in0.0 mm
04:40 AM 52.8°F11.6°C 49.4°F9.7°C 88% 1.2 mph SW1.9 kmh SW 5.8 mph9.3 kmh 30.08 in1018.6 mb - 0.00 in0.0 mm 0.00 in0.0 mm
04:20 AM 53.5°F11.9°C 49.7°F9.8°C 87% 4.6 mph W7.4 kmh W 6.9 mph11.1 kmh 30.08 in1018.6 mb - 0.00 in0.0 mm 0.00 in0.0 mm
04:10 AM 53.7°F12.1°C 49.6°F9.8°C 86% 4.6 mph WNW7.4 kmh WNW 8.1 mph13.0 kmh 30.08 in1018.6 mb - 0.00 in0.0 mm 0.00 in0.0 mm
04:00 AM 53.7°F12.1°C 49.9°F9.9°C 87% 3.5 mph SW5.6 kmh SW 5.8 mph9.3 kmh 30.08 in1018.6 mb - 0.00 in0.0 mm 0.00 in0.0 mm
03:50 AM 53.4°F11.9°C 49.9°F9.9°C 88% 3.5 mph SW5.6 kmh SW 6.9 mph11.1 kmh 30.09 in1019.0 mb - 0.00 in0.0 mm 0.00 in0.0 mm
03:40 AM 53.0°F11.7°C 49.8°F9.9°C 89% 2.3 mph SW3.7 kmh SW 5.8 mph9.3 kmh 30.09 in1019.0 mb - 0.00 in0.0 mm 0.00 in0.0 mm
03:30 AM 53.0°F11.7°C 50.1°F10.1°C 90% Calm Calm 2.3 mph3.7 kmh 30.09 in1019.0 mb - 0.00 in0.0 mm 0.00 in0.0 mm
03:20 AM 53.1°F11.7°C 50.5°F10.3°C 91% Calm Calm -- 30.09 in1019.0 mb - 0.00 in0.0 mm 0.00 in0.0 mm
03:10 AM 53.1°F11.7°C 50.3°F10.2°C 90% Calm Calm -- 30.10 in1019.3 mb - 0.00 in0.0 mm 0.00 in0.0 mm
03:00 AM 53.2°F11.8°C 50.3°F10.2°C 90% Calm Calm -- 30.10 in1019.3 mb - 0.00 in0.0 mm 0.00 in0.0 mm
02:50 AM 53.4°F11.9°C 50.5°F10.3°C 90% Calm Calm -- 30.10 in1019.3 mb - 0.00 in0.0 mm 0.00 in0.0 mm
02:40 AM 53.5°F11.9°C 50.6°F10.3°C 90% Calm Calm -- 30.11 in1019.6 mb - 0.00 in0.0 mm 0.00 in0.0 mm
02:30 AM 53.7°F12.1°C 50.5°F10.3°C 89% Calm Calm -- 30.11 in1019.6 mb - 0.00 in0.0 mm 0.00 in0.0 mm
02:20 AM 53.9°F12.2°C 50.7°F10.4°C 89% Calm Calm -- 30.11 in1019.6 mb - 0.00 in0.0 mm 0.00 in0.0 mm
02:10 AM 54.0°F12.2°C 50.8°F10.4°C 89% Calm Calm -- 30.11 in1019.6 mb - 0.00 in0.0 mm 0.00 in0.0 mm
02:00 AM 54.2°F12.3°C 51.0°F10.6°C 89% Calm Calm -- 30.11 in1019.6 mb - 0.00 in0.0 mm 0.00 in0.0 mm
01:50 AM 54.3°F12.4°C 51.1°F10.6°C 89% Calm Calm -- 30.11 in1019.6 mb - 0.00 in0.0 mm 0.00 in0.0 mm
01:40 AM 54.4°F12.4°C 50.9°F10.5°C 88% Calm Calm -- 30.12 in1020.0 mb - 0.00 in0.0 mm 0.00 in0.0 mm
01:30 AM 54.4°F12.4°C 50.9°F10.5°C 88% Calm Calm -- 30.12 in1020.0 mb - 0.00 in0.0 mm 0.00 in0.0 mm
01:20 AM 54.4°F12.4°C 50.9°F10.5°C 88% Calm Calm -- 30.12 in1020.0 mb - 0.00 in0.0 mm 0.00 in0.0 mm
01:10 AM 54.5°F12.5°C 51.0°F10.6°C 88% Calm Calm -- 30.12 in1020.0 mb - 0.00 in0.0 mm 0.00 in0.0 mm
01:00 AM 54.5°F12.5°C 51.0°F10.6°C 88% Calm Calm -- 30.12 in1020.0 mb - 0.00 in0.0 mm 0.00 in0.0 mm
12:50 AM 54.7°F12.6°C 51.2°F10.7°C 88% Calm Calm -- 30.12 in1020.0 mb - 0.00 in0.0 mm 0.00 in0.0 mm
12:40 AM 54.8°F12.7°C 51.0°F10.6°C 87% Calm Calm -- 30.12 in1020.0 mb - 0.00 in0.0 mm 0.00 in0.0 mm
12:30 AM 54.9°F12.7°C 51.1°F10.6°C 87% Calm Calm -- 30.13 in1020.3 mb - 0.00 in0.0 mm 0.00 in0.0 mm
12:20 AM 55.1°F12.8°C 51.3°F10.7°C 87% Calm Calm -- 30.13 in1020.3 mb - 0.00 in0.0 mm 0.00 in0.0 mm
12:10 AM 55.2°F12.9°C 50.8°F10.4°C 85% Calm Calm -- 30.13 in1020.3 mb - 0.00 in0.0 mm 0.00 in0.0 mm
12:00 AM 55.4°F13.0°C 51.0°F10.6°C 85% Calm Calm -- 30.13 in1020.3 mb - 0.00 in0.0 mm 0.00 in0.0 mm